Portada
METAR-TAF:

METAR-TAF

Aeroports :

Chōfu, Japó

latitud: 35-40N, longitud: 139-32E, altitud: 41 m

Observació

L'informe es va fer fa 12 hores i 16 minuts, a les 07:00 UTC
Vent 7 kt del Nord, variant entre Nord/Nord-Oest i Nord-Est
Temperatura 24°C
Humitat 65%
Pressió 1020 hPa
Visibilitat 10 km o més
Escasses núvols a una alçada de 3000 ft
Núvols disperses a una alçada de 4000 ft
Cel ennuvolat a una alçada de 8000 ft

METAR: RJTF 210700Z 01007KT 340V040 9999 FEW030 SCT040 BKN080 24/17 Q1020

Hora: 04:16 (19:16 UTC)


TAF: manca

Observacions i pronòstics meteorològics de més de 4000 aeroports (METAR i TAF).

Les estacions disponibles són els punts grocs i vermells al mapa.

Posi el ratolí al punt desitjat per veure el nom de l'estació.

Feu clic per veure les observacions i els pronòstics meteorològics.

Per canviar el mapa: feu clic els botons verds amb una creu de color negre per apropar; al botó verd amb un guió per allunyar la imatge; o en les fletxes verdes per a mapes adjacents.


METAR-TAF: